sensor_id;sensor_type;location;lat;lon;timestamp;P1;durP1;ratioP1;P2;durP2;ratioP2
11319;SDS011;5715;48.234;14.320;2023-04-24T00:02:07;1.40;;;1.30;;
11319;SDS011;5715;48.234;14.320;2023-04-24T00:04:58;1.23;;;1.17;;
11319;SDS011;5715;48.234;14.320;2023-04-24T00:07:48;1.63;;;1.52;;
11319;SDS011;5715;48.234;14.320;2023-04-24T00:10:39;2.38;;;1.60;;
11319;SDS011;5715;48.234;14.320;2023-04-24T00:13:27;2.15;;;1.67;;
11319;SDS011;5715;48.234;14.320;2023-04-24T00:16:15;2.42;;;1.95;;
11319;SDS011;5715;48.234;14.320;2023-04-24T00:19:02;1.85;;;1.75;;
11319;SDS011;5715;48.234;14.320;2023-04-24T00:21:54;3.20;;;1.40;;
11319;SDS011;5715;48.234;14.320;2023-04-24T00:24:42;4.10;;;1.92;;
11319;SDS011;5715;48.234;14.320;2023-04-24T00:27:33;1.73;;;1.63;;
11319;SDS011;5715;48.234;14.320;2023-04-24T00:30:22;2.17;;;1.97;;
11319;SDS011;5715;48.234;14.320;2023-04-24T00:33:10;1.88;;;1.77;;
11319;SDS011;5715;48.234;14.320;2023-04-24T00:35:58;2.78;;;2.15;;
11319;SDS011;5715;48.234;14.320;2023-04-24T00:38:46;1.80;;;1.70;;
11319;SDS011;5715;48.234;14.320;2023-04-24T00:41:34;2.05;;;1.85;;
11319;SDS011;5715;48.234;14.320;2023-04-24T00:44:22;1.80;;;1.70;;
11319;SDS011;5715;48.234;14.320;2023-04-24T00:47:10;2.37;;;2.17;;
11319;SDS011;5715;48.234;14.320;2023-04-24T00:50:05;2.55;;;2.08;;
11319;SDS011;5715;48.234;14.320;2023-04-24T00:52:54;3.13;;;1.27;;
11319;SDS011;5715;48.234;14.320;2023-04-24T00:55:42;5.75;;;2.00;;
11319;SDS011;5715;48.234;14.320;2023-04-24T00:58:30;1.63;;;1.52;;
11319;SDS011;5715;48.234;14.320;2023-04-24T01:01:21;1.30;;;1.27;;
11319;SDS011;5715;48.234;14.320;2023-04-24T01:04:09;1.73;;;1.60;;
11319;SDS011;5715;48.234;14.320;2023-04-24T01:06:59;3.40;;;1.67;;
11319;SDS011;5715;48.234;14.320;2023-04-24T01:09:47;1.63;;;1.53;;
11319;SDS011;5715;48.234;14.320;2023-04-24T01:12:38;2.70;;;1.58;;
11319;SDS011;5715;48.234;14.320;2023-04-24T01:15:28;1.83;;;1.63;;
11319;SDS011;5715;48.234;14.320;2023-04-24T01:18:15;11.67;;;2.00;;
11319;SDS011;5715;48.234;14.320;2023-04-24T01:21:04;3.47;;;1.80;;
11319;SDS011;5715;48.234;14.320;2023-04-24T01:23:54;8.80;;;1.77;;
11319;SDS011;5715;48.234;14.320;2023-04-24T01:26:43;1.63;;;1.52;;
11319;SDS011;5715;48.234;14.320;2023-04-24T01:29:31;1.10;;;1.10;;
11319;SDS011;5715;48.234;14.320;2023-04-24T01:32:19;1.77;;;1.67;;
11319;SDS011;5715;48.234;14.320;2023-04-24T01:35:07;2.00;;;1.85;;
11319;SDS011;5715;48.234;14.320;2023-04-24T01:37:55;2.27;;;2.17;;
11319;SDS011;5715;48.234;14.320;2023-04-24T01:40:43;2.72;;;2.50;;
11319;SDS011;5715;48.234;14.320;2023-04-24T01:43:30;2.17;;;2.07;;
11319;SDS011;5715;48.234;14.320;2023-04-24T01:46:19;2.53;;;2.42;;
11319;SDS011;5715;48.234;14.320;2023-04-24T01:49:07;2.40;;;2.30;;
11319;SDS011;5715;48.234;14.320;2023-04-24T01:51:55;2.57;;;2.47;;
11319;SDS011;5715;48.234;14.320;2023-04-24T01:54:43;2.77;;;2.67;;
11319;SDS011;5715;48.234;14.320;2023-04-24T01:57:31;2.67;;;2.58;;
11319;SDS011;5715;48.234;14.320;2023-04-24T02:00:20;2.37;;;2.27;;
11319;SDS011;5715;48.234;14.320;2023-04-24T02:03:09;2.75;;;2.55;;
11319;SDS011;5715;48.234;14.320;2023-04-24T02:05:57;2.47;;;2.30;;
11319;SDS011;5715;48.234;14.320;2023-04-24T02:08:44;2.03;;;1.92;;
11319;SDS011;5715;48.234;14.320;2023-04-24T02:11:32;2.20;;;2.10;;
11319;SDS011;5715;48.234;14.320;2023-04-24T02:14:19;1.77;;;1.67;;
11319;SDS011;5715;48.234;14.320;2023-04-24T02:17:06;1.60;;;1.50;;
11319;SDS011;5715;48.234;14.320;2023-04-24T02:19:54;2.13;;;1.97;;
11319;SDS011;5715;48.234;14.320;2023-04-24T02:22:41;1.48;;;1.45;;
11319;SDS011;5715;48.234;14.320;2023-04-24T02:25:29;1.55;;;1.45;;
11319;SDS011;5715;48.234;14.320;2023-04-24T02:28:17;1.70;;;1.60;;
11319;SDS011;5715;48.234;14.320;2023-04-24T02:31:04;1.88;;;1.75;;
11319;SDS011;5715;48.234;14.320;2023-04-24T02:33:53;2.15;;;1.95;;
11319;SDS011;5715;48.234;14.320;2023-04-24T02:36:40;3.53;;;2.47;;
11319;SDS011;5715;48.234;14.320;2023-04-24T02:39:28;3.53;;;2.37;;
11319;SDS011;5715;48.234;14.320;2023-04-24T02:42:15;2.03;;;1.93;;
11319;SDS011;5715;48.234;14.320;2023-04-24T02:45:03;3.38;;;3.08;;
11319;SDS011;5715;48.234;14.320;2023-04-24T02:47:51;2.80;;;2.60;;
11319;SDS011;5715;48.234;14.320;2023-04-24T02:50:39;3.30;;;3.10;;
11319;SDS011;5715;48.234;14.320;2023-04-24T02:53:26;3.20;;;3.00;;
11319;SDS011;5715;48.234;14.320;2023-04-24T02:56:16;4.10;;;2.53;;
11319;SDS011;5715;48.234;14.320;2023-04-24T02:59:04;2.47;;;2.37;;
11319;SDS011;5715;48.234;14.320;2023-04-24T03:01:51;2.60;;;2.40;;
11319;SDS011;5715;48.234;14.320;2023-04-24T03:04:39;2.70;;;2.30;;
11319;SDS011;5715;48.234;14.320;2023-04-24T03:07:27;1.93;;;1.80;;
11319;SDS011;5715;48.234;14.320;2023-04-24T03:10:14;1.77;;;1.67;;
11319;SDS011;5715;48.234;14.320;2023-04-24T03:13:02;2.00;;;1.80;;
11319;SDS011;5715;48.234;14.320;2023-04-24T03:15:49;2.80;;;2.33;;
11319;SDS011;5715;48.234;14.320;2023-04-24T03:18:37;2.33;;;1.80;;
11319;SDS011;5715;48.234;14.320;2023-04-24T03:21:24;2.30;;;2.05;;
11319;SDS011;5715;48.234;14.320;2023-04-24T03:24:13;1.70;;;1.60;;
11319;SDS011;5715;48.234;14.320;2023-04-24T03:27:00;3.57;;;2.27;;
11319;SDS011;5715;48.234;14.320;2023-04-24T03:29:48;3.10;;;2.80;;
11319;SDS011;5715;48.234;14.320;2023-04-24T03:32:38;3.05;;;2.85;;
11319;SDS011;5715;48.234;14.320;2023-04-24T03:35:26;2.90;;;2.70;;
11319;SDS011;5715;48.234;14.320;2023-04-24T03:38:13;3.03;;;2.83;;
11319;SDS011;5715;48.234;14.320;2023-04-24T03:41:01;2.90;;;2.70;;
11319;SDS011;5715;48.234;14.320;2023-04-24T03:43:49;3.13;;;3.00;;
11319;SDS011;5715;48.234;14.320;2023-04-24T03:46:36;3.10;;;2.90;;
11319;SDS011;5715;48.234;14.320;2023-04-24T03:49:24;3.20;;;3.00;;
11319;SDS011;5715;48.234;14.320;2023-04-24T03:52:12;2.73;;;2.63;;
11319;SDS011;5715;48.234;14.320;2023-04-24T03:55:00;3.17;;;2.97;;
11319;SDS011;5715;48.234;14.320;2023-04-24T03:57:47;7.25;;;3.17;;
11319;SDS011;5715;48.234;14.320;2023-04-24T04:00:35;2.90;;;2.70;;
11319;SDS011;5715;48.234;14.320;2023-04-24T04:03:24;2.90;;;2.70;;
11319;SDS011;5715;48.234;14.320;2023-04-24T04:06:12;2.80;;;2.60;;
11319;SDS011;5715;48.234;14.320;2023-04-24T04:09:00;5.53;;;3.20;;
11319;SDS011;5715;48.234;14.320;2023-04-24T04:11:47;2.40;;;2.30;;
11319;SDS011;5715;48.234;14.320;2023-04-24T04:14:35;2.80;;;2.57;;
11319;SDS011;5715;48.234;14.320;2023-04-24T04:17:22;2.27;;;2.07;;
11319;SDS011;5715;48.234;14.320;2023-04-24T04:20:10;2.53;;;2.43;;
11319;SDS011;5715;48.234;14.320;2023-04-24T04:22:58;2.33;;;2.23;;
11319;SDS011;5715;48.234;14.320;2023-04-24T04:25:46;1.93;;;1.83;;
11319;SDS011;5715;48.234;14.320;2023-04-24T04:28:33;1.50;;;1.45;;
11319;SDS011;5715;48.234;14.320;2023-04-24T04:31:21;3.00;;;2.73;;
11319;SDS011;5715;48.234;14.320;2023-04-24T04:34:10;2.90;;;2.60;;
11319;SDS011;5715;48.234;14.320;2023-04-24T04:36:59;2.30;;;1.93;;
11319;SDS011;5715;48.234;14.320;2023-04-24T04:39:47;1.90;;;1.80;;
11319;SDS011;5715;48.234;14.320;2023-04-24T04:42:35;2.60;;;2.40;;
11319;SDS011;5715;48.234;14.320;2023-04-24T04:45:26;3.20;;;2.90;;
11319;SDS011;5715;48.234;14.320;2023-04-24T04:48:15;3.87;;;2.77;;
11319;SDS011;5715;48.234;14.320;2023-04-24T04:51:05;2.30;;;2.20;;
11319;SDS011;5715;48.234;14.320;2023-04-24T04:53:53;5.70;;;2.63;;
11319;SDS011;5715;48.234;14.320;2023-04-24T04:56:40;3.90;;;2.90;;
11319;SDS011;5715;48.234;14.320;2023-04-24T04:59:28;3.00;;;2.73;;
11319;SDS011;5715;48.234;14.320;2023-04-24T05:02:15;2.67;;;2.47;;
11319;SDS011;5715;48.234;14.320;2023-04-24T05:05:03;2.67;;;1.97;;
11319;SDS011;5715;48.234;14.320;2023-04-24T05:07:53;2.10;;;1.98;;
11319;SDS011;5715;48.234;14.320;2023-04-24T05:10:40;2.10;;;2.00;;
11319;SDS011;5715;48.234;14.320;2023-04-24T05:13:28;2.93;;;2.80;;
11319;SDS011;5715;48.234;14.320;2023-04-24T05:16:26;3.17;;;2.87;;
11319;SDS011;5715;48.234;14.320;2023-04-24T05:19:14;2.53;;;2.33;;
11319;SDS011;5715;48.234;14.320;2023-04-24T05:22:01;2.05;;;1.95;;
11319;SDS011;5715;48.234;14.320;2023-04-24T05:24:50;2.03;;;1.93;;
11319;SDS011;5715;48.234;14.320;2023-04-24T05:27:38;2.07;;;1.97;;
11319;SDS011;5715;48.234;14.320;2023-04-24T05:30:26;1.97;;;1.87;;
11319;SDS011;5715;48.234;14.320;2023-04-24T05:33:14;2.20;;;2.00;;
11319;SDS011;5715;48.234;14.320;2023-04-24T05:36:01;1.70;;;1.50;;
11319;SDS011;5715;48.234;14.320;2023-04-24T05:38:49;2.60;;;1.97;;
11319;SDS011;5715;48.234;14.320;2023-04-24T05:41:37;1.90;;;1.80;;
11319;SDS011;5715;48.234;14.320;2023-04-24T05:44:24;1.83;;;1.73;;
11319;SDS011;5715;48.234;14.320;2023-04-24T05:47:12;1.30;;;1.20;;
11319;SDS011;5715;48.234;14.320;2023-04-24T05:50:00;1.35;;;1.25;;
11319;SDS011;5715;48.234;14.320;2023-04-24T05:52:47;1.17;;;1.17;;
11319;SDS011;5715;48.234;14.320;2023-04-24T05:55:35;1.70;;;1.60;;
11319;SDS011;5715;48.234;14.320;2023-04-24T05:58:23;1.27;;;1.25;;
11319;SDS011;5715;48.234;14.320;2023-04-24T06:01:10;1.80;;;1.70;;
11319;SDS011;5715;48.234;14.320;2023-04-24T06:03:58;1.83;;;1.40;;
11319;SDS011;5715;48.234;14.320;2023-04-24T06:06:46;1.30;;;1.30;;
11319;SDS011;5715;48.234;14.320;2023-04-24T06:09:37;1.40;;;1.30;;
11319;SDS011;5715;48.234;14.320;2023-04-24T06:12:25;6.40;;;1.50;;
11319;SDS011;5715;48.234;14.320;2023-04-24T06:15:13;1.30;;;1.20;;
11319;SDS011;5715;48.234;14.320;2023-04-24T06:18:00;1.47;;;1.37;;
11319;SDS011;5715;48.234;14.320;2023-04-24T06:20:48;1.60;;;1.50;;
11319;SDS011;5715;48.234;14.320;2023-04-24T06:23:36;1.20;;;1.20;;
11319;SDS011;5715;48.234;14.320;2023-04-24T06:26:23;5.60;;;2.00;;
11319;SDS011;5715;48.234;14.320;2023-04-24T06:29:13;1.43;;;1.33;;
11319;SDS011;5715;48.234;14.320;2023-04-24T06:32:00;1.50;;;1.40;;
11319;SDS011;5715;48.234;14.320;2023-04-24T06:34:48;2.50;;;1.90;;
11319;SDS011;5715;48.234;14.320;2023-04-24T06:37:36;1.20;;;1.20;;
11319;SDS011;5715;48.234;14.320;2023-04-24T06:40:23;4.00;;;1.70;;
11319;SDS011;5715;48.234;14.320;2023-04-24T06:43:12;1.23;;;1.23;;
11319;SDS011;5715;48.234;14.320;2023-04-24T06:45:59;1.40;;;1.40;;
11319;SDS011;5715;48.234;14.320;2023-04-24T06:48:47;1.30;;;1.20;;
11319;SDS011;5715;48.234;14.320;2023-04-24T06:51:35;8.23;;;1.60;;
11319;SDS011;5715;48.234;14.320;2023-04-24T06:54:23;1.40;;;1.30;;
11319;SDS011;5715;48.234;14.320;2023-04-24T06:57:10;1.40;;;1.30;;
11319;SDS011;5715;48.234;14.320;2023-04-24T06:59:58;1.50;;;1.40;;
11319;SDS011;5715;48.234;14.320;2023-04-24T07:02:45;1.80;;;1.70;;
11319;SDS011;5715;48.234;14.320;2023-04-24T07:05:33;1.70;;;1.60;;
11319;SDS011;5715;48.234;14.320;2023-04-24T07:08:22;2.00;;;1.90;;
11319;SDS011;5715;48.234;14.320;2023-04-24T07:11:09;3.53;;;1.93;;
11319;SDS011;5715;48.234;14.320;2023-04-24T07:14:03;3.67;;;2.10;;
11319;SDS011;5715;48.234;14.320;2023-04-24T07:16:51;2.43;;;1.57;;
11319;SDS011;5715;48.234;14.320;2023-04-24T07:19:39;1.93;;;1.60;;
11319;SDS011;5715;48.234;14.320;2023-04-24T07:22:27;1.50;;;1.40;;
11319;SDS011;5715;48.234;14.320;2023-04-24T07:25:14;1.10;;;1.10;;
11319;SDS011;5715;48.234;14.320;2023-04-24T07:28:02;1.60;;;1.47;;
11319;SDS011;5715;48.234;14.320;2023-04-24T07:30:51;1.10;;;1.10;;
11319;SDS011;5715;48.234;14.320;2023-04-24T07:33:40;1.80;;;1.57;;
11319;SDS011;5715;48.234;14.320;2023-04-24T07:36:28;1.92;;;1.50;;
11319;SDS011;5715;48.234;14.320;2023-04-24T07:39:15;1.30;;;1.20;;
11319;SDS011;5715;48.234;14.320;2023-04-24T07:42:03;6.10;;;1.40;;
11319;SDS011;5715;48.234;14.320;2023-04-24T07:44:50;1.05;;;1.02;;
11319;SDS011;5715;48.234;14.320;2023-04-24T07:47:38;1.08;;;1.08;;
11319;SDS011;5715;48.234;14.320;2023-04-24T07:50:27;0.88;;;0.88;;
11319;SDS011;5715;48.234;14.320;2023-04-24T07:53:14;1.38;;;1.27;;
11319;SDS011;5715;48.234;14.320;2023-04-24T07:56:02;1.73;;;1.63;;
11319;SDS011;5715;48.234;14.320;2023-04-24T07:58:49;2.60;;;1.87;;
11319;SDS011;5715;48.234;14.320;2023-04-24T08:01:37;1.35;;;1.30;;
11319;SDS011;5715;48.234;14.320;2023-04-24T08:04:25;1.60;;;1.48;;
11319;SDS011;5715;48.234;14.320;2023-04-24T08:07:13;1.70;;;1.60;;
11319;SDS011;5715;48.234;14.320;2023-04-24T08:10:01;1.40;;;1.30;;
11319;SDS011;5715;48.234;14.320;2023-04-24T08:12:49;1.50;;;1.30;;
11319;SDS011;5715;48.234;14.320;2023-04-24T08:15:37;1.43;;;1.37;;
11319;SDS011;5715;48.234;14.320;2023-04-24T08:18:24;1.42;;;1.33;;
11319;SDS011;5715;48.234;14.320;2023-04-24T08:21:13;5.78;;;2.15;;
11319;SDS011;5715;48.234;14.320;2023-04-24T08:24:03;1.60;;;1.50;;
11319;SDS011;5715;48.234;14.320;2023-04-24T08:26:54;1.00;;;1.00;;
11319;SDS011;5715;48.234;14.320;2023-04-24T08:29:43;3.88;;;1.50;;
11319;SDS011;5715;48.234;14.320;2023-04-24T08:32:31;1.50;;;1.20;;
11319;SDS011;5715;48.234;14.320;2023-04-24T08:35:19;1.23;;;1.13;;
11319;SDS011;5715;48.234;14.320;2023-04-24T08:38:07;0.88;;;0.88;;
11319;SDS011;5715;48.234;14.320;2023-04-24T08:40:54;0.95;;;0.95;;
11319;SDS011;5715;48.234;14.320;2023-04-24T08:43:46;0.82;;;0.82;;
11319;SDS011;5715;48.234;14.320;2023-04-24T08:46:37;1.33;;;1.23;;
11319;SDS011;5715;48.234;14.320;2023-04-24T08:49:28;0.90;;;0.90;;
11319;SDS011;5715;48.234;14.320;2023-04-24T08:52:16;1.08;;;1.00;;
11319;SDS011;5715;48.234;14.320;2023-04-24T08:55:05;1.00;;;1.00;;
11319;SDS011;5715;48.234;14.320;2023-04-24T08:57:53;1.73;;;1.58;;
11319;SDS011;5715;48.234;14.320;2023-04-24T09:00:41;1.20;;;1.17;;
11319;SDS011;5715;48.234;14.320;2023-04-24T09:03:33;4.68;;;1.10;;
11319;SDS011;5715;48.234;14.320;2023-04-24T09:06:23;0.93;;;0.93;;
11319;SDS011;5715;48.234;14.320;2023-04-24T09:09:12;0.90;;;0.90;;
11319;SDS011;5715;48.234;14.320;2023-04-24T09:12:01;1.08;;;0.90;;
11319;SDS011;5715;48.234;14.320;2023-04-24T09:14:50;0.90;;;0.90;;
11319;SDS011;5715;48.234;14.320;2023-04-24T09:17:40;0.95;;;0.95;;
11319;SDS011;5715;48.234;14.320;2023-04-24T09:20:27;1.05;;;0.93;;
11319;SDS011;5715;48.234;14.320;2023-04-24T09:23:17;1.75;;;1.42;;
11319;SDS011;5715;48.234;14.320;2023-04-24T09:26:05;1.30;;;1.20;;
11319;SDS011;5715;48.234;14.320;2023-04-24T09:28:53;1.58;;;1.30;;
11319;SDS011;5715;48.234;14.320;2023-04-24T09:31:40;1.80;;;1.70;;
11319;SDS011;5715;48.234;14.320;2023-04-24T09:34:28;1.60;;;1.50;;
11319;SDS011;5715;48.234;14.320;2023-04-24T09:37:28;1.70;;;1.60;;
11319;SDS011;5715;48.234;14.320;2023-04-24T09:40:20;1.60;;;1.50;;
11319;SDS011;5715;48.234;14.320;2023-04-24T09:43:12;1.83;;;1.73;;
11319;SDS011;5715;48.234;14.320;2023-04-24T09:46:04;4.70;;;2.10;;
11319;SDS011;5715;48.234;14.320;2023-04-24T09:48:55;2.03;;;1.92;;
11319;SDS011;5715;48.234;14.320;2023-04-24T09:51:42;1.60;;;1.50;;
11319;SDS011;5715;48.234;14.320;2023-04-24T09:54:30;1.85;;;1.75;;
11319;SDS011;5715;48.234;14.320;2023-04-24T09:57:18;1.60;;;1.50;;
11319;SDS011;5715;48.234;14.320;2023-04-24T10:00:05;2.17;;;1.98;;
11319;SDS011;5715;48.234;14.320;2023-04-24T10:03:03;1.90;;;1.80;;
11319;SDS011;5715;48.234;14.320;2023-04-24T10:05:53;1.60;;;1.50;;
11319;SDS011;5715;48.234;14.320;2023-04-24T10:08:41;2.00;;;1.90;;
11319;SDS011;5715;48.234;14.320;2023-04-24T10:11:30;1.55;;;1.45;;
11319;SDS011;5715;48.234;14.320;2023-04-24T10:14:19;1.55;;;1.45;;
11319;SDS011;5715;48.234;14.320;2023-04-24T10:17:09;1.30;;;1.30;;
11319;SDS011;5715;48.234;14.320;2023-04-24T10:19:58;1.88;;;1.77;;
11319;SDS011;5715;48.234;14.320;2023-04-24T10:22:49;3.28;;;1.70;;
11319;SDS011;5715;48.234;14.320;2023-04-24T10:25:39;1.85;;;1.75;;
11319;SDS011;5715;48.234;14.320;2023-04-24T10:28:29;1.80;;;1.70;;
11319;SDS011;5715;48.234;14.320;2023-04-24T10:31:20;1.50;;;1.40;;
11319;SDS011;5715;48.234;14.320;2023-04-24T10:34:09;1.50;;;1.40;;
11319;SDS011;5715;48.234;14.320;2023-04-24T10:36:57;4.65;;;1.60;;
11319;SDS011;5715;48.234;14.320;2023-04-24T10:39:49;1.27;;;1.27;;
11319;SDS011;5715;48.234;14.320;2023-04-24T10:42:41;1.77;;;1.60;;
11319;SDS011;5715;48.234;14.320;2023-04-24T10:45:29;1.87;;;1.43;;
11319;SDS011;5715;48.234;14.320;2023-04-24T10:48:17;2.20;;;2.03;;
11319;SDS011;5715;48.234;14.320;2023-04-24T10:51:13;2.35;;;2.15;;
11319;SDS011;5715;48.234;14.320;2023-04-24T10:54:04;1.87;;;1.77;;
11319;SDS011;5715;48.234;14.320;2023-04-24T10:57:32;0.98;;;0.98;;
11319;SDS011;5715;48.234;14.320;2023-04-24T11:00:20;0.95;;;0.95;;
11319;SDS011;5715;48.234;14.320;2023-04-24T11:03:25;1.50;;;1.40;;
11319;SDS011;5715;48.234;14.320;2023-04-24T11:06:28;1.27;;;1.27;;
11319;SDS011;5715;48.234;14.320;2023-04-24T11:09:26;1.20;;;1.20;;
11319;SDS011;5715;48.234;14.320;2023-04-24T11:12:15;1.50;;;1.40;;
11319;SDS011;5715;48.234;14.320;2023-04-24T11:15:03;1.70;;;1.60;;
11319;SDS011;5715;48.234;14.320;2023-04-24T11:17:57;2.15;;;1.40;;
11319;SDS011;5715;48.234;14.320;2023-04-24T11:20:45;0.90;;;0.90;;
11319;SDS011;5715;48.234;14.320;2023-04-24T11:23:35;1.25;;;1.10;;
11319;SDS011;5715;48.234;14.320;2023-04-24T11:26:24;1.08;;;1.00;;
11319;SDS011;5715;48.234;14.320;2023-04-24T11:29:19;0.88;;;0.88;;
11319;SDS011;5715;48.234;14.320;2023-04-24T11:38:11;1.80;;;1.70;;
11319;SDS011;5715;48.234;14.320;2023-04-24T11:41:10;1.20;;;1.20;;
11319;SDS011;5715;48.234;14.320;2023-04-24T11:43:59;3.28;;;1.42;;
11319;SDS011;5715;48.234;14.320;2023-04-24T11:46:47;1.50;;;1.40;;
11319;SDS011;5715;48.234;14.320;2023-04-24T11:49:38;7.43;;;1.83;;
11319;SDS011;5715;48.234;14.320;2023-04-24T11:52:26;2.00;;;1.90;;
11319;SDS011;5715;48.234;14.320;2023-04-24T11:58:05;4.65;;;3.15;;
11319;SDS011;5715;48.234;14.320;2023-04-24T12:00:56;2.00;;;1.90;;
11319;SDS011;5715;48.234;14.320;2023-04-24T12:03:48;2.20;;;2.10;;
11319;SDS011;5715;48.234;14.320;2023-04-24T12:06:38;1.80;;;1.70;;
11319;SDS011;5715;48.234;14.320;2023-04-24T12:09:25;1.67;;;1.58;;
11319;SDS011;5715;48.234;14.320;2023-04-24T12:12:14;2.22;;;1.48;;
11319;SDS011;5715;48.234;14.320;2023-04-24T12:15:07;1.67;;;1.58;;
11319;SDS011;5715;48.234;14.320;2023-04-24T12:17:56;4.25;;;1.83;;
11319;SDS011;5715;48.234;14.320;2023-04-24T12:20:44;2.38;;;2.00;;
11319;SDS011;5715;48.234;14.320;2023-04-24T12:23:35;2.55;;;2.13;;
11319;SDS011;5715;48.234;14.320;2023-04-24T12:26:22;1.40;;;1.40;;
11319;SDS011;5715;48.234;14.320;2023-04-24T12:29:11;1.75;;;0.90;;
11319;SDS011;5715;48.234;14.320;2023-04-24T12:32:15;1.20;;;1.10;;
11319;SDS011;5715;48.234;14.320;2023-04-24T12:35:03;1.27;;;1.20;;
11319;SDS011;5715;48.234;14.320;2023-04-24T12:37:52;1.15;;;1.15;;
11319;SDS011;5715;48.234;14.320;2023-04-24T12:40:41;1.90;;;1.80;;
11319;SDS011;5715;48.234;14.320;2023-04-24T12:43:30;2.60;;;2.40;;
11319;SDS011;5715;48.234;14.320;2023-04-24T12:46:18;1.77;;;1.67;;
11319;SDS011;5715;48.234;14.320;2023-04-24T12:49:08;1.45;;;1.45;;
11319;SDS011;5715;48.234;14.320;2023-04-24T12:51:56;1.30;;;1.30;;
11319;SDS011;5715;48.234;14.320;2023-04-24T12:54:44;1.40;;;1.30;;
11319;SDS011;5715;48.234;14.320;2023-04-24T12:57:33;0.77;;;0.77;;
11319;SDS011;5715;48.234;14.320;2023-04-24T13:00:23;1.20;;;1.13;;
11319;SDS011;5715;48.234;14.320;2023-04-24T13:03:11;1.70;;;1.20;;
11319;SDS011;5715;48.234;14.320;2023-04-24T13:06:00;1.30;;;1.20;;
11319;SDS011;5715;48.234;14.320;2023-04-24T13:08:50;1.47;;;1.37;;
11319;SDS011;5715;48.234;14.320;2023-04-24T13:11:38;4.00;;;1.10;;
11319;SDS011;5715;48.234;14.320;2023-04-24T13:14:25;0.93;;;0.93;;
11319;SDS011;5715;48.234;14.320;2023-04-24T13:17:13;1.02;;;1.02;;
11319;SDS011;5715;48.234;14.320;2023-04-24T13:20:01;1.67;;;1.58;;
11319;SDS011;5715;48.234;14.320;2023-04-24T13:22:50;1.70;;;1.60;;
11319;SDS011;5715;48.234;14.320;2023-04-24T13:25:37;2.45;;;1.55;;
11319;SDS011;5715;48.234;14.320;2023-04-24T13:28:25;1.87;;;1.77;;
11319;SDS011;5715;48.234;14.320;2023-04-24T13:31:14;10.00;;;2.15;;
11319;SDS011;5715;48.234;14.320;2023-04-24T13:34:02;2.00;;;1.52;;
11319;SDS011;5715;48.234;14.320;2023-04-24T13:36:53;3.42;;;1.60;;
11319;SDS011;5715;48.234;14.320;2023-04-24T13:39:43;1.30;;;1.15;;
11319;SDS011;5715;48.234;14.320;2023-04-24T13:42:31;2.75;;;1.15;;
11319;SDS011;5715;48.234;14.320;2023-04-24T13:45:18;0.98;;;0.98;;
11319;SDS011;5715;48.234;14.320;2023-04-24T13:48:11;1.08;;;0.98;;
11319;SDS011;5715;48.234;14.320;2023-04-24T13:51:00;1.70;;;1.27;;
11319;SDS011;5715;48.234;14.320;2023-04-24T13:53:48;1.50;;;1.40;;
11319;SDS011;5715;48.234;14.320;2023-04-24T13:56:35;1.42;;;1.33;;
11319;SDS011;5715;48.234;14.320;2023-04-24T13:59:23;1.80;;;1.60;;
11319;SDS011;5715;48.234;14.320;2023-04-24T14:02:11;3.60;;;1.50;;
11319;SDS011;5715;48.234;14.320;2023-04-24T14:04:59;1.67;;;1.58;;
11319;SDS011;5715;48.234;14.320;2023-04-24T14:07:47;1.45;;;1.35;;
11319;SDS011;5715;48.234;14.320;2023-04-24T14:10:34;1.60;;;1.50;;
11319;SDS011;5715;48.234;14.320;2023-04-24T14:13:22;2.45;;;1.60;;
11319;SDS011;5715;48.234;14.320;2023-04-24T14:16:10;1.50;;;1.40;;
11319;SDS011;5715;48.234;14.320;2023-04-24T14:18:58;1.58;;;1.48;;
11319;SDS011;5715;48.234;14.320;2023-04-24T14:21:46;1.45;;;1.38;;
11319;SDS011;5715;48.234;14.320;2023-04-24T14:24:34;1.80;;;1.65;;
11319;SDS011;5715;48.234;14.320;2023-04-24T14:27:21;1.25;;;1.20;;
11319;SDS011;5715;48.234;14.320;2023-04-24T14:30:09;1.63;;;1.52;;
11319;SDS011;5715;48.234;14.320;2023-04-24T14:32:57;1.55;;;1.45;;
11319;SDS011;5715;48.234;14.320;2023-04-24T14:35:44;2.22;;;1.40;;
11319;SDS011;5715;48.234;14.320;2023-04-24T14:38:33;1.58;;;1.40;;
11319;SDS011;5715;48.234;14.320;2023-04-24T14:41:21;1.00;;;0.90;;
11319;SDS011;5715;48.234;14.320;2023-04-24T14:44:09;1.10;;;1.10;;
11319;SDS011;5715;48.234;14.320;2023-04-24T14:46:57;7.65;;;1.70;;
11319;SDS011;5715;48.234;14.320;2023-04-24T14:49:45;1.67;;;1.58;;
11319;SDS011;5715;48.234;14.320;2023-04-24T14:52:33;1.90;;;1.70;;
11319;SDS011;5715;48.234;14.320;2023-04-24T14:55:22;2.13;;;1.95;;
11319;SDS011;5715;48.234;14.320;2023-04-24T14:58:11;1.70;;;1.60;;
11319;SDS011;5715;48.234;14.320;2023-04-24T15:00:59;4.03;;;1.50;;
11319;SDS011;5715;48.234;14.320;2023-04-24T15:03:46;5.35;;;1.55;;
11319;SDS011;5715;48.234;14.320;2023-04-24T15:06:34;1.10;;;1.05;;
11319;SDS011;5715;48.234;14.320;2023-04-24T15:09:22;1.00;;;1.00;;
11319;SDS011;5715;48.234;14.320;2023-04-24T15:12:11;1.27;;;1.27;;
11319;SDS011;5715;48.234;14.320;2023-04-24T15:14:59;2.27;;;1.73;;
11319;SDS011;5715;48.234;14.320;2023-04-24T15:17:46;1.03;;;1.03;;
11319;SDS011;5715;48.234;14.320;2023-04-24T15:20:34;1.50;;;1.40;;
11319;SDS011;5715;48.234;14.320;2023-04-24T15:23:24;5.47;;;1.70;;
11319;SDS011;5715;48.234;14.320;2023-04-24T15:26:11;1.70;;;1.60;;
11319;SDS011;5715;48.234;14.320;2023-04-24T15:28:59;1.70;;;1.60;;
11319;SDS011;5715;48.234;14.320;2023-04-24T15:31:47;1.80;;;1.70;;
11319;SDS011;5715;48.234;14.320;2023-04-24T15:34:34;1.80;;;1.70;;
11319;SDS011;5715;48.234;14.320;2023-04-24T15:37:22;1.90;;;1.80;;
11319;SDS011;5715;48.234;14.320;2023-04-24T15:40:10;1.57;;;1.50;;
11319;SDS011;5715;48.234;14.320;2023-04-24T15:42:59;6.03;;;1.90;;
11319;SDS011;5715;48.234;14.320;2023-04-24T15:45:49;1.93;;;1.80;;
11319;SDS011;5715;48.234;14.320;2023-04-24T15:48:37;1.90;;;1.63;;
11319;SDS011;5715;48.234;14.320;2023-04-24T15:51:27;1.43;;;1.37;;
11319;SDS011;5715;48.234;14.320;2023-04-24T15:54:15;1.57;;;1.47;;
11319;SDS011;5715;48.234;14.320;2023-04-24T15:57:02;1.50;;;1.40;;
11319;SDS011;5715;48.234;14.320;2023-04-24T15:59:50;1.20;;;1.20;;
11319;SDS011;5715;48.234;14.320;2023-04-24T16:02:37;1.57;;;1.47;;
11319;SDS011;5715;48.234;14.320;2023-04-24T16:05:26;1.53;;;1.43;;
11319;SDS011;5715;48.234;14.320;2023-04-24T16:08:14;1.40;;;1.40;;
11319;SDS011;5715;48.234;14.320;2023-04-24T16:11:02;1.37;;;1.37;;
11319;SDS011;5715;48.234;14.320;2023-04-24T16:13:49;2.60;;;2.00;;
11319;SDS011;5715;48.234;14.320;2023-04-24T16:16:37;1.80;;;1.70;;
11319;SDS011;5715;48.234;14.320;2023-04-24T16:19:25;0.97;;;0.97;;
11319;SDS011;5715;48.234;14.320;2023-04-24T16:22:12;7.13;;;1.60;;
11319;SDS011;5715;48.234;14.320;2023-04-24T16:25:00;1.23;;;1.13;;
11319;SDS011;5715;48.234;14.320;2023-04-24T16:27:48;1.50;;;1.40;;
11319;SDS011;5715;48.234;14.320;2023-04-24T16:30:36;1.10;;;1.10;;
11319;SDS011;5715;48.234;14.320;2023-04-24T16:33:25;1.40;;;1.30;;
11319;SDS011;5715;48.234;14.320;2023-04-24T16:36:13;1.20;;;1.10;;
11319;SDS011;5715;48.234;14.320;2023-04-24T16:39:02;1.30;;;1.20;;
11319;SDS011;5715;48.234;14.320;2023-04-24T16:41:50;1.23;;;1.10;;
11319;SDS011;5715;48.234;14.320;2023-04-24T16:44:40;2.63;;;1.50;;
11319;SDS011;5715;48.234;14.320;2023-04-24T16:47:29;2.13;;;1.40;;
11319;SDS011;5715;48.234;14.320;2023-04-24T16:50:16;1.83;;;1.60;;
11319;SDS011;5715;48.234;14.320;2023-04-24T16:53:04;1.73;;;1.63;;
11319;SDS011;5715;48.234;14.320;2023-04-24T16:55:52;4.17;;;2.63;;
11319;SDS011;5715;48.234;14.320;2023-04-24T16:58:40;1.73;;;1.63;;
11319;SDS011;5715;48.234;14.320;2023-04-24T17:01:28;1.60;;;1.50;;
11319;SDS011;5715;48.234;14.320;2023-04-24T17:04:15;1.55;;;1.45;;
11319;SDS011;5715;48.234;14.320;2023-04-24T17:07:03;1.37;;;1.30;;